createdAt,value
2022-10-31T00:01:11.126Z,22.97
2022-10-31T00:03:39.406Z,19.40
2022-10-31T00:06:07.747Z,17.63
2022-10-31T00:08:36.307Z,17.90
2022-10-31T00:11:04.749Z,16.33
2022-10-31T00:13:33.729Z,16.57
2022-10-31T00:16:03.294Z,16.37
2022-10-31T00:18:31.603Z,15.73
2022-10-31T00:21:03.531Z,16.50
2022-10-31T00:23:31.916Z,16.90
2022-10-31T00:26:03.651Z,16.20
2022-10-31T00:28:33.195Z,18.33
2022-10-31T00:31:03.708Z,17.20
2022-10-31T00:33:32.160Z,16.70
2022-10-31T00:36:00.443Z,14.93
2022-10-31T00:38:28.765Z,16.83
2022-10-31T00:40:57.091Z,18.57
2022-10-31T00:43:25.615Z,16.43
2022-10-31T00:45:53.914Z,16.77
2022-10-31T00:48:23.928Z,15.90
2022-10-31T00:50:52.259Z,16.90
2022-10-31T00:53:20.538Z,16.50
2022-10-31T00:55:48.998Z,18.10
2022-10-31T00:58:17.416Z,17.80
2022-10-31T01:00:48.165Z,17.00
2022-10-31T01:03:19.298Z,16.77
2022-10-31T01:05:58.216Z,17.17
2022-10-31T01:08:26.597Z,16.83
2022-10-31T01:11:07.539Z,15.97
2022-10-31T01:13:35.957Z,17.13
2022-10-31T01:16:05.857Z,16.63
2022-10-31T01:18:34.872Z,17.10
2022-10-31T01:21:07.187Z,17.20
2022-10-31T01:23:36.165Z,17.70
2022-10-31T01:26:07.798Z,15.87
2022-10-31T01:28:36.657Z,17.33
2022-10-31T01:31:07.655Z,16.50
2022-10-31T01:33:37.807Z,16.23
2022-10-31T01:36:16.937Z,16.03
2022-10-31T01:38:45.447Z,15.57
2022-10-31T01:41:15.845Z,14.90
2022-10-31T01:43:49.889Z,14.87
2022-10-31T01:46:21.648Z,15.17
2022-10-31T01:48:50.617Z,15.27
2022-10-31T01:51:24.279Z,16.90
2022-10-31T01:53:56.739Z,16.67
2022-10-31T01:56:25.165Z,16.07
2022-10-31T01:58:56.572Z,17.67
2022-10-31T02:01:25.209Z,17.77
2022-10-31T02:03:53.877Z,16.47
2022-10-31T02:06:34.096Z,17.73
2022-10-31T02:09:04.912Z,15.97
2022-10-31T02:11:35.025Z,16.30
2022-10-31T02:14:04.837Z,17.50
2022-10-31T02:16:33.415Z,17.93
2022-10-31T02:19:01.810Z,18.20
2022-10-31T02:21:41.467Z,18.03
2022-10-31T02:24:38.495Z,16.43
2022-10-31T02:27:18.466Z,18.93
2022-10-31T02:30:13.415Z,20.87
2022-10-31T02:32:59.662Z,20.50
2022-10-31T02:35:48.438Z,23.67
2022-10-31T02:38:28.268Z,23.00
2022-10-31T02:41:06.267Z,24.07
2022-10-31T02:43:51.057Z,22.93
2022-10-31T02:46:30.456Z,21.40
2022-10-31T02:49:07.860Z,23.53
2022-10-31T02:51:37.501Z,23.13
2022-10-31T02:54:05.888Z,22.17
2022-10-31T02:56:34.336Z,18.67
2022-10-31T02:59:06.146Z,18.60
2022-10-31T03:02:08.701Z,18.63
2022-10-31T03:05:15.988Z,17.50
2022-10-31T03:07:55.415Z,18.13
2022-10-31T03:10:34.715Z,18.10
2022-10-31T03:13:11.305Z,17.67
2022-10-31T03:15:45.073Z,18.57
2022-10-31T03:18:19.530Z,15.70
2022-10-31T03:20:52.197Z,17.90
2022-10-31T03:23:24.315Z,17.53
2022-10-31T03:25:55.086Z,16.87
2022-10-31T03:28:32.599Z,16.67
2022-10-31T03:31:06.384Z,16.70
2022-10-31T03:33:41.590Z,18.20
2022-10-31T03:36:12.191Z,17.30
2022-10-31T03:38:44.601Z,15.77
2022-10-31T03:41:18.339Z,16.80
2022-10-31T03:43:54.434Z,16.20
2022-10-31T03:46:23.377Z,17.00
2022-10-31T03:48:56.445Z,16.80
2022-10-31T03:51:30.187Z,16.90
2022-10-31T03:54:06.457Z,15.87
2022-10-31T03:56:38.948Z,15.60
2022-10-31T03:59:11.423Z,16.83
2022-10-31T04:01:45.511Z,15.17
2022-10-31T04:04:14.625Z,15.00
2022-10-31T04:06:46.428Z,18.70
2022-10-31T04:09:18.476Z,18.67
2022-10-31T04:11:49.963Z,17.53
2022-10-31T04:14:39.644Z,22.07
2022-10-31T04:17:13.529Z,19.10
2022-10-31T04:19:43.598Z,19.97
2022-10-31T04:22:12.389Z,17.50
2022-10-31T04:24:42.733Z,16.50
2022-10-31T04:27:16.119Z,17.40
2022-10-31T04:29:46.913Z,17.90
2022-10-31T04:32:18.672Z,18.67
2022-10-31T04:34:46.971Z,21.80
2022-10-31T04:37:15.357Z,21.17
2022-10-31T04:39:44.927Z,19.67
2022-10-31T04:42:32.358Z,20.53
2022-10-31T04:45:03.911Z,27.47
2022-10-31T04:47:36.658Z,21.87
2022-10-31T04:50:05.436Z,20.07
2022-10-31T04:52:41.287Z,21.83
2022-10-31T04:55:13.026Z,19.70
2022-10-31T04:58:00.430Z,19.73
2022-10-31T05:00:29.293Z,22.80
2022-10-31T05:02:59.934Z,25.17
2022-10-31T05:05:31.666Z,21.00
2022-10-31T05:08:02.821Z,24.33
2022-10-31T05:10:33.970Z,22.03
2022-10-31T05:13:05.328Z,24.03
2022-10-31T05:15:52.388Z,22.90
2022-10-31T05:18:39.010Z,25.77
2022-10-31T05:21:25.426Z,21.90
2022-10-31T05:23:56.331Z,22.10
2022-10-31T05:26:27.484Z,23.27
2022-10-31T05:28:56.848Z,23.03
2022-10-31T05:31:25.383Z,21.53
2022-10-31T05:33:56.479Z,21.77
2022-10-31T05:37:02.829Z,21.43
2022-10-31T05:39:31.087Z,20.53
2022-10-31T05:42:06.407Z,20.17
2022-10-31T05:44:34.738Z,18.93
2022-10-31T05:47:13.138Z,20.20
2022-10-31T05:50:19.843Z,20.27
2022-10-31T05:53:00.218Z,20.63
2022-10-31T05:55:34.513Z,19.73
2022-10-31T05:58:12.988Z,20.50
2022-10-31T06:00:44.925Z,19.30
2022-10-31T06:03:14.297Z,18.83
2022-10-31T06:05:55.509Z,19.00
2022-10-31T06:08:28.343Z,16.80
2022-10-31T06:10:58.688Z,17.53
2022-10-31T06:13:50.962Z,16.57
2022-10-31T06:16:26.289Z,15.03
2022-10-31T06:18:57.719Z,16.70
2022-10-31T06:21:26.036Z,16.60
2022-10-31T06:23:54.336Z,16.07
2022-10-31T06:26:45.777Z,15.37
2022-10-31T06:29:16.563Z,16.53
2022-10-31T06:32:03.208Z,15.63
2022-10-31T06:34:33.356Z,17.67
2022-10-31T06:37:01.888Z,17.97
2022-10-31T06:39:31.909Z,15.00
2022-10-31T06:42:00.281Z,15.60
2022-10-31T06:44:30.917Z,20.63
2022-10-31T06:47:02.139Z,21.57
2022-10-31T06:49:42.285Z,23.17
2022-10-31T06:52:15.109Z,19.13
2022-10-31T06:54:43.546Z,18.60
2022-10-31T06:57:11.777Z,19.20
2022-10-31T06:59:42.592Z,18.57
2022-10-31T07:02:11.975Z,18.40
2022-10-31T07:04:42.090Z,15.67
2022-10-31T07:07:12.808Z,14.93
2022-10-31T07:09:41.446Z,15.77
2022-10-31T07:12:11.978Z,14.77
2022-10-31T07:14:47.158Z,13.83
2022-10-31T07:17:16.136Z,13.27
2022-10-31T07:19:46.252Z,13.10
2022-10-31T07:22:18.045Z,13.87
2022-10-31T07:24:46.675Z,14.37
2022-10-31T07:27:47.347Z,13.53
2022-10-31T07:30:19.472Z,12.90
2022-10-31T07:32:50.267Z,12.80
2022-10-31T07:35:22.218Z,12.50
2022-10-31T07:37:59.235Z,11.53
2022-10-31T07:40:27.869Z,11.53
2022-10-31T07:42:56.131Z,11.83
2022-10-31T07:46:01.053Z,11.37
2022-10-31T07:48:47.922Z,12.30
2022-10-31T07:51:34.856Z,12.40
2022-10-31T07:54:26.317Z,11.70
2022-10-31T07:56:55.846Z,12.73
2022-10-31T07:59:26.745Z,11.40
2022-10-31T08:01:57.229Z,12.10
2022-10-31T08:04:44.035Z,12.40
2022-10-31T08:07:31.423Z,11.13
2022-10-31T08:10:06.557Z,11.03
2022-10-31T08:12:36.628Z,12.50
2022-10-31T08:15:09.658Z,12.33
2022-10-31T08:17:41.250Z,11.20
2022-10-31T08:20:12.780Z,12.27
2022-10-31T08:22:56.183Z,12.27
2022-10-31T08:25:25.313Z,12.83
2022-10-31T08:27:55.799Z,13.53
2022-10-31T08:30:26.868Z,13.87
2022-10-31T08:33:19.100Z,12.13
2022-10-31T08:36:05.894Z,11.80
2022-10-31T08:39:09.431Z,12.83
2022-10-31T08:41:37.699Z,12.90
2022-10-31T08:44:09.274Z,11.57
2022-10-31T08:46:39.320Z,12.50
2022-10-31T08:49:09.093Z,14.17
2022-10-31T08:51:37.497Z,15.60
2022-10-31T08:54:05.856Z,16.13
2022-10-31T08:56:56.519Z,21.33
2022-10-31T08:59:42.402Z,16.20
2022-10-31T09:02:33.397Z,13.43
2022-10-31T09:05:05.356Z,12.40
2022-10-31T09:07:33.808Z,11.63
2022-10-31T09:10:02.067Z,11.50
2022-10-31T09:12:34.600Z,11.17
2022-10-31T09:15:23.144Z,10.47
2022-10-31T09:18:00.055Z,11.03
2022-10-31T09:20:39.865Z,10.97
2022-10-31T09:23:10.670Z,10.67
2022-10-31T09:25:40.766Z,10.43
2022-10-31T09:28:45.850Z,11.60
2022-10-31T09:31:15.855Z,12.80
2022-10-31T09:33:55.851Z,13.30
2022-10-31T09:36:41.077Z,14.60
2022-10-31T09:39:13.900Z,12.10
2022-10-31T09:42:11.403Z,12.83
2022-10-31T09:44:49.708Z,11.63
2022-10-31T09:47:45.735Z,15.43
2022-10-31T09:50:38.669Z,19.77
2022-10-31T09:53:35.015Z,18.37
2022-10-31T09:56:07.481Z,17.93
2022-10-31T09:58:42.639Z,17.67
2022-10-31T10:01:21.133Z,17.10
2022-10-31T10:03:54.265Z,15.67
2022-10-31T10:06:48.619Z,14.60
2022-10-31T10:09:36.535Z,15.80
2022-10-31T10:12:40.343Z,14.13
2022-10-31T10:15:32.218Z,14.83
2022-10-31T10:18:07.690Z,17.60
2022-10-31T10:20:45.838Z,16.57
2022-10-31T10:23:38.888Z,16.50
2022-10-31T10:26:19.456Z,16.23
2022-10-31T10:28:52.356Z,14.40
2022-10-31T10:31:25.426Z,13.87
2022-10-31T10:34:03.522Z,14.17
2022-10-31T10:36:38.820Z,14.50
2022-10-31T10:39:16.399Z,13.93
2022-10-31T10:42:03.193Z,13.50
2022-10-31T10:44:49.007Z,13.37
2022-10-31T10:47:34.708Z,12.00
2022-10-31T10:50:09.254Z,15.17
2022-10-31T10:52:50.921Z,14.47
2022-10-31T10:55:29.192Z,16.60
2022-10-31T10:58:02.333Z,14.90
2022-10-31T11:00:34.078Z,16.33
2022-10-31T11:03:03.114Z,17.30
2022-10-31T11:05:50.299Z,17.30
2022-10-31T11:08:27.443Z,16.80
2022-10-31T11:11:01.256Z,16.57
2022-10-31T11:13:31.828Z,15.53
2022-10-31T11:16:03.702Z,20.13
2022-10-31T11:18:34.683Z,19.50
2022-10-31T11:21:05.666Z,18.87
2022-10-31T11:23:35.339Z,19.57
2022-10-31T11:26:05.916Z,18.03
2022-10-31T11:28:36.544Z,20.17
2022-10-31T11:31:09.689Z,28.60
2022-10-31T11:33:40.308Z,25.00
2022-10-31T11:36:18.939Z,26.97
2022-10-31T11:38:47.837Z,29.13
2022-10-31T11:41:18.487Z,26.30
2022-10-31T11:43:55.607Z,25.03
2022-10-31T11:46:29.582Z,20.27
2022-10-31T11:48:58.647Z,19.53
2022-10-31T11:51:30.485Z,19.53
2022-10-31T11:54:03.476Z,20.93
2022-10-31T11:56:41.885Z,17.33
2022-10-31T11:59:24.265Z,17.33
2022-10-31T12:01:54.756Z,16.77
2022-10-31T12:04:33.495Z,16.40
2022-10-31T12:07:01.976Z,19.37
2022-10-31T12:09:32.536Z,18.67
2022-10-31T12:12:24.796Z,17.93
2022-10-31T12:15:06.027Z,19.43
2022-10-31T12:17:40.139Z,19.70
2022-10-31T12:20:23.347Z,18.37
2022-10-31T12:23:00.176Z,20.03
2022-10-31T12:25:40.316Z,20.30
2022-10-31T12:28:41.618Z,23.30
2022-10-31T12:31:31.974Z,22.70
2022-10-31T12:34:14.190Z,21.10
2022-10-31T12:36:52.094Z,20.50
2022-10-31T12:39:31.627Z,19.43
2022-10-31T12:42:11.686Z,17.93
2022-10-31T12:45:07.041Z,18.87
2022-10-31T12:48:00.606Z,18.20
2022-10-31T12:50:37.263Z,18.47
2022-10-31T12:53:21.174Z,18.07
2022-10-31T12:56:03.255Z,19.43
2022-10-31T12:58:35.730Z,19.43
2022-10-31T13:01:11.338Z,21.37
2022-10-31T13:03:50.329Z,19.60
2022-10-31T13:06:22.803Z,20.07
2022-10-31T13:08:55.758Z,19.20
2022-10-31T13:11:28.014Z,19.00
2022-10-31T13:14:05.357Z,18.70
2022-10-31T13:16:39.383Z,17.50
2022-10-31T13:19:19.642Z,18.07
2022-10-31T13:21:59.604Z,21.27
2022-10-31T13:24:35.418Z,20.90
2022-10-31T13:27:11.569Z,20.53
2022-10-31T13:29:44.979Z,21.93
2022-10-31T13:32:13.579Z,20.70
2022-10-31T13:34:47.649Z,19.57
2022-10-31T13:37:24.695Z,18.00
2022-10-31T13:40:16.181Z,20.00
2022-10-31T13:42:56.389Z,19.50
2022-10-31T13:45:26.666Z,21.40
2022-10-31T13:48:01.075Z,22.30
2022-10-31T13:50:32.524Z,23.23
2022-10-31T13:53:22.300Z,24.17
2022-10-31T13:55:52.867Z,23.13
2022-10-31T13:58:27.541Z,22.73
2022-10-31T14:01:19.043Z,25.63
2022-10-31T14:04:07.670Z,24.03
2022-10-31T14:06:54.444Z,23.27
2022-10-31T14:09:41.708Z,24.43
2022-10-31T14:12:14.949Z,25.23
2022-10-31T14:14:49.925Z,26.77
2022-10-31T14:17:22.336Z,23.13
2022-10-31T14:20:20.680Z,25.23
2022-10-31T14:22:50.409Z,24.10
2022-10-31T14:25:33.333Z,25.67
2022-10-31T14:28:04.955Z,27.93
2022-10-31T14:30:33.620Z,24.80
2022-10-31T14:33:04.995Z,26.17
2022-10-31T14:35:48.079Z,23.93
2022-10-31T14:38:29.650Z,25.40
2022-10-31T14:41:18.975Z,23.63
2022-10-31T14:44:14.967Z,23.27
2022-10-31T14:46:53.512Z,23.73
2022-10-31T14:49:35.131Z,22.53
2022-10-31T14:52:04.227Z,25.37
2022-10-31T14:54:40.157Z,22.80
2022-10-31T14:57:15.505Z,25.57
2022-10-31T14:59:59.225Z,28.03
2022-10-31T15:02:37.819Z,27.63
2022-10-31T15:05:10.469Z,28.00
2022-10-31T15:07:50.352Z,25.40
2022-10-31T15:10:26.775Z,29.03
2022-10-31T15:12:55.178Z,25.80
2022-10-31T15:15:25.436Z,28.57
2022-10-31T15:17:58.576Z,27.07
2022-10-31T15:20:29.528Z,27.73
2022-10-31T15:23:00.122Z,29.57
2022-10-31T15:25:33.253Z,28.97
2022-10-31T15:28:02.135Z,27.47
2022-10-31T15:30:32.601Z,23.97
2022-10-31T15:33:00.869Z,27.70
2022-10-31T15:35:31.079Z,24.63
2022-10-31T15:38:02.739Z,27.63
2022-10-31T15:40:32.859Z,26.27
2022-10-31T15:43:04.646Z,25.93
2022-10-31T15:45:33.506Z,25.53
2022-10-31T15:48:05.818Z,26.97
2022-10-31T15:50:40.568Z,27.20
2022-10-31T15:53:18.810Z,25.80
2022-10-31T15:55:53.848Z,27.00
2022-10-31T15:58:22.737Z,26.97
2022-10-31T16:01:00.348Z,25.67
2022-10-31T16:03:31.006Z,24.73
2022-10-31T16:06:01.297Z,24.50
2022-10-31T16:08:36.518Z,28.00
2022-10-31T16:11:20.528Z,31.00
2022-10-31T16:13:58.348Z,36.47
2022-10-31T16:16:36.153Z,33.03
2022-10-31T16:19:07.276Z,30.20
2022-10-31T16:21:38.199Z,26.40
2022-10-31T16:24:17.331Z,24.53
2022-10-31T16:26:51.393Z,24.30
2022-10-31T16:29:29.027Z,25.47
2022-10-31T16:31:57.522Z,23.93
2022-10-31T16:34:27.020Z,23.27
2022-10-31T16:36:55.888Z,23.77
2022-10-31T16:39:24.204Z,22.50
2022-10-31T16:41:57.545Z,23.13
2022-10-31T16:44:27.788Z,23.47
2022-10-31T16:47:10.982Z,22.40
2022-10-31T16:49:39.349Z,21.13
2022-10-31T16:52:07.747Z,23.53
2022-10-31T16:54:36.420Z,26.40
2022-10-31T16:57:07.649Z,28.17
2022-10-31T16:59:36.610Z,32.87
2022-10-31T17:02:06.214Z,32.87
2022-10-31T17:07:03.140Z,37.23
2022-10-31T17:09:31.416Z,32.23
2022-10-31T17:12:00.305Z,31.27
2022-10-31T17:14:30.348Z,32.87
2022-10-31T17:16:58.625Z,27.73
2022-10-31T17:19:26.909Z,25.30
2022-10-31T17:21:55.233Z,25.90
2022-10-31T17:24:23.647Z,29.67
2022-10-31T17:26:52.065Z,29.33
2022-10-31T17:29:20.342Z,30.67
2022-10-31T17:31:49.987Z,29.53
2022-10-31T17:34:19.360Z,29.10
2022-10-31T17:36:52.378Z,30.53
2022-10-31T17:39:21.405Z,30.87
2022-10-31T17:41:52.381Z,47.40
2022-10-31T17:44:21.169Z,46.87
2022-10-31T17:46:50.731Z,40.17
2022-10-31T17:49:19.124Z,33.97
2022-10-31T17:51:47.367Z,27.50
2022-10-31T17:54:18.484Z,27.13
2022-10-31T17:56:46.777Z,26.77
2022-10-31T17:59:15.193Z,26.03
2022-10-31T18:01:43.715Z,27.10
2022-10-31T18:04:13.517Z,25.47
2022-10-31T18:06:41.837Z,27.73
2022-10-31T18:09:10.093Z,27.00
2022-10-31T18:11:38.367Z,26.53
2022-10-31T18:14:06.549Z,24.77
2022-10-31T18:19:05.403Z,26.87
2022-10-31T18:21:35.059Z,25.37
2022-10-31T18:24:03.943Z,26.37
2022-10-31T18:26:32.284Z,23.87
2022-10-31T18:29:00.610Z,22.60
2022-10-31T18:31:29.062Z,22.30
2022-10-31T18:33:58.243Z,23.37
2022-10-31T18:36:26.685Z,22.33
2022-10-31T18:38:56.307Z,21.27
2022-10-31T18:41:24.785Z,22.57
2022-10-31T18:43:56.210Z,20.73
2022-10-31T18:46:24.488Z,23.13
2022-10-31T18:48:52.987Z,21.83
2022-10-31T18:51:21.299Z,25.20
2022-10-31T18:53:55.745Z,29.97
2022-10-31T18:56:24.956Z,26.13
2022-10-31T18:58:53.479Z,24.30
2022-10-31T19:01:23.170Z,21.63
2022-10-31T19:03:55.289Z,24.40
2022-10-31T19:06:23.818Z,24.30
2022-10-31T19:09:00.290Z,25.17
2022-10-31T19:11:29.156Z,26.20
2022-10-31T19:13:58.684Z,24.40
2022-10-31T19:16:27.210Z,23.07
2022-10-31T19:18:56.807Z,24.00
2022-10-31T19:21:25.665Z,22.33
2022-10-31T19:23:56.537Z,24.13
2022-10-31T19:26:27.115Z,25.57
2022-10-31T19:28:56.835Z,27.47
2022-10-31T19:31:25.845Z,29.53
2022-10-31T19:33:54.175Z,29.13
2022-10-31T19:36:23.801Z,27.03
2022-10-31T19:38:53.595Z,26.30
2022-10-31T19:41:24.205Z,24.30
2022-10-31T19:43:54.897Z,25.40
2022-10-31T19:49:13.548Z,22.47
2022-10-31T19:51:41.898Z,21.63
2022-10-31T19:54:11.501Z,23.17
2022-10-31T19:56:39.831Z,23.67
2022-10-31T19:59:12.031Z,22.77
2022-10-31T20:01:40.453Z,21.80
2022-10-31T20:04:08.705Z,23.30
2022-10-31T20:06:39.917Z,24.47
2022-10-31T20:09:10.760Z,24.70
2022-10-31T20:11:39.916Z,24.27
2022-10-31T20:14:10.083Z,26.20
2022-10-31T20:16:40.070Z,23.27
2022-10-31T20:19:08.338Z,25.47
2022-10-31T20:21:38.469Z,24.77
2022-10-31T20:24:09.641Z,24.67
2022-10-31T20:26:40.742Z,26.63
2022-10-31T20:29:11.201Z,23.63
2022-10-31T20:31:41.043Z,22.93
2022-10-31T20:34:09.336Z,25.37
2022-10-31T20:36:37.812Z,25.63
2022-10-31T20:39:06.346Z,23.60
2022-10-31T20:41:37.918Z,23.97
2022-10-31T20:44:06.301Z,22.57
2022-10-31T20:46:34.715Z,23.67
2022-10-31T20:49:04.823Z,21.60
2022-10-31T20:51:33.088Z,21.90
2022-10-31T20:54:01.960Z,21.87
2022-10-31T20:56:30.580Z,21.53
2022-10-31T20:58:59.260Z,23.80
2022-10-31T21:01:30.402Z,22.13
2022-10-31T21:03:59.498Z,21.37
2022-10-31T21:06:30.436Z,22.23
2022-10-31T21:09:00.061Z,21.67
2022-10-31T21:11:29.540Z,22.03
2022-10-31T21:13:59.470Z,19.97
2022-10-31T21:16:31.248Z,20.23
2022-10-31T21:19:01.846Z,23.17
2022-10-31T21:21:34.177Z,21.27
2022-10-31T21:24:05.506Z,20.43
2022-10-31T21:26:36.370Z,20.17
2022-10-31T21:29:06.367Z,20.43
2022-10-31T21:31:36.019Z,20.00
2022-10-31T21:34:04.725Z,20.40
2022-10-31T21:36:34.838Z,20.73
2022-10-31T21:39:04.247Z,21.40
2022-10-31T21:41:32.916Z,21.77
2022-10-31T21:44:01.315Z,20.77
2022-10-31T21:46:30.999Z,19.80
2022-10-31T21:48:59.749Z,20.43
2022-10-31T21:51:29.747Z,21.00
2022-10-31T21:54:17.226Z,20.07
2022-10-31T21:56:45.615Z,20.33
2022-10-31T21:59:14.109Z,19.90
2022-10-31T22:01:42.680Z,20.13
2022-10-31T22:04:11.297Z,21.07
2022-10-31T22:06:39.838Z,21.03
2022-10-31T22:09:12.658Z,19.30
2022-10-31T22:11:41.410Z,19.77
2022-10-31T22:14:13.059Z,18.90
2022-10-31T22:16:42.277Z,18.27
2022-10-31T22:19:12.968Z,18.93
2022-10-31T22:21:43.348Z,19.47
2022-10-31T22:24:13.920Z,19.10
2022-10-31T22:26:42.830Z,19.93
2022-10-31T22:29:13.406Z,19.53
2022-10-31T22:31:43.844Z,20.67
2022-10-31T22:34:12.990Z,19.23
2022-10-31T22:36:41.869Z,20.90
2022-10-31T22:39:14.020Z,20.33
2022-10-31T22:41:42.666Z,19.70
2022-10-31T22:44:10.856Z,20.53
2022-10-31T22:46:40.529Z,19.80
2022-10-31T22:49:11.557Z,20.47
2022-10-31T22:51:40.767Z,20.40
2022-10-31T22:54:13.806Z,19.77
2022-10-31T22:56:42.378Z,19.77
2022-10-31T22:59:13.037Z,19.97
2022-10-31T23:01:41.868Z,19.57
2022-10-31T23:06:39.000Z,21.07
2022-10-31T23:09:08.755Z,22.83
2022-10-31T23:11:40.476Z,20.00
2022-10-31T23:14:10.994Z,20.23
2022-10-31T23:16:43.948Z,22.73
2022-10-31T23:19:14.309Z,20.30
2022-10-31T23:21:57.656Z,19.30
2022-10-31T23:24:33.140Z,20.30
2022-10-31T23:27:09.815Z,19.67
2022-10-31T23:29:41.175Z,20.73
2022-10-31T23:32:12.195Z,20.60
2022-10-31T23:34:40.491Z,21.57
2022-10-31T23:37:09.040Z,19.53
2022-10-31T23:39:37.466Z,21.50
2022-10-31T23:42:07.247Z,22.00
2022-10-31T23:44:35.528Z,21.70
2022-10-31T23:47:04.907Z,19.93
2022-10-31T23:49:33.326Z,22.00
2022-10-31T23:52:02.103Z,21.93
2022-10-31T23:54:30.515Z,21.03
2022-10-31T23:56:59.256Z,22.47
2022-10-31T23:59:29.384Z,24.63
